Time;durP1;ratioP1;P1;durP2;ratioP2;P2;SDS_P1;SDS_P2;PMS_P1;PMS_P2;Temp;Humidity;BMP_temperature;BMP_pressure;BME280_temperature;BME280_humidity;BME280_pressure;Samples;Min_cycle;Max_cycle;Signal;HPM_P1;HPM_P2
2022/10/09 00:00:38;;;;;;;7.97;4.85;;;12.70;82.40;;;;;;5051287;28;20294;-75
2022/10/09 00:03:04;;;;;;;5.43;4.50;;;12.70;82.10;;;;;;5051141;28;20306;-75
2022/10/09 00:05:30;;;;;;;6.65;4.85;;;12.70;82.50;;;;;;5049791;28;20254;-75
2022/10/09 00:07:55;;;;;;;4.97;4.47;;;12.70;82.90;;;;;;5051953;28;20199;-75
2022/10/09 00:10:21;;;;;;;5.07;4.68;;;12.70;82.70;;;;;;5048311;28;20206;-75
2022/10/09 00:12:47;;;;;;;6.15;3.70;;;12.70;82.50;;;;;;5049420;28;20183;-75
2022/10/09 00:15:13;;;;;;;5.30;3.67;;;12.70;82.40;;;;;;5053363;28;20178;-75
2022/10/09 00:17:39;;;;;;;5.65;4.13;;;12.60;81.90;;;;;;5045335;28;20237;-75
2022/10/09 00:20:05;;;;;;;4.70;3.75;;;12.60;82.30;;;;;;5047475;28;20987;-74
2022/10/09 00:22:31;;;;;;;3.78;3.58;;;12.60;82.60;;;;;;5055970;28;20183;-75
2022/10/09 00:24:56;;;;;;;4.13;3.90;;;12.60;82.80;;;;;;5048419;28;20199;-74
2022/10/09 00:27:22;;;;;;;4.43;4.13;;;12.50;82.50;;;;;;5048149;28;20186;-75
2022/10/09 00:29:48;;;;;;;4.07;3.78;;;12.50;82.40;;;;;;5054387;28;20237;-75
2022/10/09 00:32:15;;;;;;;4.95;3.67;;;12.40;82.50;;;;;;5045896;28;20175;-75
2022/10/09 00:34:41;;;;;;;4.32;3.55;;;12.40;82.50;;;;;;5048127;28;20184;-74
2022/10/09 00:37:07;;;;;;;3.70;3.50;;;12.40;83.60;;;;;;5048845;28;20193;-74
2022/10/09 00:39:33;;;;;;;4.13;3.42;;;12.40;83.40;;;;;;5054240;28;20258;-75
2022/10/09 00:41:59;;;;;;;3.67;3.40;;;12.30;83.80;;;;;;5044908;28;21089;-74
2022/10/09 00:44:56;;;;;;;3.17;2.90;;;12.30;83.30;;;;;;5048684;28;20269;-75
2022/10/09 00:47:28;;;;;;;3.35;3.05;;;12.30;82.90;;;;;;5052195;28;20174;-75
2022/10/09 00:50:02;;;;;;;2.63;2.45;;;12.20;83.90;;;;;;5047622;28;20185;-75
2022/10/09 00:52:28;;;;;;;6.65;2.72;;;12.20;83.80;;;;;;5056012;28;20183;-75
2022/10/09 00:54:55;;;;;;;4.90;3.25;;;12.10;85.10;;;;;;5046538;28;20289;-75
2022/10/09 00:57:20;;;;;;;3.13;2.78;;;12.10;85.00;;;;;;5051471;28;20795;-74
2022/10/09 00:59:46;;;;;;;3.55;3.20;;;12.10;85.00;;;;;;5050824;28;20191;-74
2022/10/09 01:02:12;;;;;;;5.38;2.92;;;12.00;84.10;;;;;;5049388;28;20271;-74
2022/10/09 01:04:37;;;;;;;3.65;2.83;;;11.90;83.50;;;;;;5045755;28;20580;-75
2022/10/09 01:07:20;;;;;;;3.92;3.60;;;11.90;83.30;;;;;;5049772;28;20654;-75
2022/10/09 01:09:56;;;;;;;3.47;3.22;;;11.90;82.10;;;;;;5051701;28;20696;-75
2022/10/09 01:13:00;;;;;;;4.93;2.83;;;11.90;83.00;;;;;;5047507;28;20183;-74
2022/10/09 01:15:31;;;;;;;3.15;2.80;;;11.80;82.30;;;;;;5046300;28;21952;-75
2022/10/09 01:18:08;;;;;;;3.63;3.22;;;11.90;83.10;;;;;;5049351;28;20245;-74
2022/10/09 01:20:53;;;;;;;3.13;2.97;;;11.80;82.10;;;;;;5047799;28;20219;-75
2022/10/09 01:23:21;;;;;;;3.05;2.85;;;11.80;82.60;;;;;;5048953;28;20298;-75
2022/10/09 01:25:58;;;;;;;3.40;2.92;;;11.80;82.50;;;;;;5051989;28;20227;-74
2022/10/09 01:28:28;;;;;;;3.08;2.80;;;11.80;82.30;;;;;;5052137;28;20228;-74
2022/10/09 01:30:57;;;;;;;2.92;2.60;;;11.80;82.70;;;;;;5049913;28;20252;-74
2022/10/09 01:33:23;;;;;;;4.82;2.80;;;11.80;82.30;;;;;;5048750;28;20234;-75
2022/10/09 01:35:49;;;;;;;5.72;3.25;;;11.80;83.40;;;;;;5050503;28;20179;-74
2022/10/09 01:38:16;;;;;;;2.70;2.50;;;11.80;83.50;;;;;;5052809;28;20197;-74
2022/10/09 01:40:43;;;;;;;5.15;2.60;;;11.80;83.70;;;;;;5045150;28;20275;-74
2022/10/09 01:43:08;;;;;;;3.22;3.03;;;11.80;84.10;;;;;;5048941;28;20240;-73
2022/10/09 01:45:40;;;;;;;3.00;2.88;;;11.80;83.10;;;;;;5047100;28;20716;-74
2022/10/09 01:48:12;;;;;;;3.70;2.92;;;11.70;82.20;;;;;;5053050;28;20183;-75
2022/10/09 01:50:42;;;;;;;2.75;2.63;;;11.70;82.50;;;;;;5046713;28;20665;-74
2022/10/09 01:53:12;;;;;;;3.17;3.00;;;11.70;82.10;;;;;;5048698;28;20190;-75
2022/10/09 01:55:48;;;;;;;3.38;3.10;;;11.70;82.20;;;;;;5045125;28;20632;-74
2022/10/09 01:58:39;;;;;;;2.70;2.60;;;11.70;82.70;;;;;;5049068;28;20567;-74
2022/10/09 02:01:16;;;;;;;3.53;2.75;;;11.70;82.30;;;;;;5049367;28;20265;-75
2022/10/09 02:03:45;;;;;;;2.95;2.75;;;11.60;83.20;;;;;;5051622;28;20669;-75
2022/10/09 02:06:13;;;;;;;2.97;2.83;;;11.60;83.40;;;;;;5045634;28;20206;-75
2022/10/09 02:08:40;;;;;;;3.47;3.17;;;11.60;84.00;;;;;;5053913;28;20210;-75
2022/10/09 02:11:07;;;;;;;2.58;2.45;;;11.60;83.80;;;;;;5049650;28;20266;-75
2022/10/09 02:13:34;;;;;;;3.00;2.80;;;11.60;84.00;;;;;;5048897;28;20213;-75
2022/10/09 02:16:16;;;;;;;3.85;2.85;;;11.50;83.60;;;;;;5045965;28;20188;-76
2022/10/09 02:19:04;;;;;;;4.35;2.95;;;11.50;83.50;;;;;;5053784;28;20183;-75
2022/10/09 02:22:16;;;;;;;2.70;2.58;;;11.50;83.00;;;;;;5024670;28;20223;-75
2022/10/09 02:24:43;;;;;;;2.55;2.45;;;11.50;83.80;;;;;;4940759;28;20195;-75
2022/10/09 02:27:11;;;;;;;4.18;2.75;;;11.50;84.80;;;;;;4940970;28;20191;-75
2022/10/09 02:29:44;;;;;;;2.40;2.30;;;11.40;85.00;;;;;;4941201;28;20191;-75
2022/10/09 02:32:10;;;;;;;3.50;3.30;;;11.40;84.30;;;;;;4941225;28;20302;-75
2022/10/09 02:34:36;;;;;;;5.03;2.90;;;11.40;84.80;;;;;;4942692;28;20203;-74
2022/10/09 02:37:02;;;;;;;3.10;2.90;;;11.30;83.80;;;;;;4941484;28;20237;-75
2022/10/09 02:39:28;;;;;;;5.38;3.03;;;11.20;84.90;;;;;;4943095;28;20199;-74
2022/10/09 02:41:53;;;;;;;3.55;3.22;;;11.20;85.80;;;;;;4941445;28;20314;-75
2022/10/09 02:44:19;;;;;;;4.15;3.78;;;11.20;85.50;;;;;;4940761;28;20205;-74
2022/10/09 02:46:45;;;;;;;3.15;2.95;;;11.10;84.50;;;;;;4942185;28;20727;-75
2022/10/09 02:49:10;;;;;;;3.63;3.25;;;11.10;83.50;;;;;;4941888;28;20673;-74
2022/10/09 02:51:36;;;;;;;3.25;2.92;;;11.10;84.90;;;;;;4941576;28;20709;-74
2022/10/09 02:54:02;;;;;;;3.13;2.88;;;11.20;84.70;;;;;;4941409;28;20206;-74
2022/10/09 02:56:28;;;;;;;4.60;2.80;;;11.20;85.90;;;;;;4944837;28;20183;-74
2022/10/09 02:58:54;;;;;;;2.28;2.17;;;11.20;86.50;;;;;;4966278;28;20193;-74
2022/10/09 03:01:19;;;;;;;2.40;2.30;;;11.20;86.20;;;;;;5048868;28;20268;-74
2022/10/09 03:03:46;;;;;;;2.53;2.42;;;11.20;86.60;;;;;;5049024;28;21075;-74
2022/10/09 03:06:18;;;;;;;2.42;2.33;;;11.20;86.00;;;;;;5052726;28;20887;-74
2022/10/09 03:08:46;;;;;;;2.50;2.30;;;11.20;85.10;;;;;;5050878;28;20183;-74
2022/10/09 03:11:13;;;;;;;5.15;2.65;;;11.20;85.30;;;;;;5048236;28;20731;-74
2022/10/09 03:13:39;;;;;;;2.95;2.30;;;11.20;84.90;;;;;;5050520;28;20183;-74
2022/10/09 03:16:07;;;;;;;2.80;2.40;;;11.10;85.10;;;;;;5053424;28;20687;-74
2022/10/09 03:18:32;;;;;;;2.45;2.25;;;11.10;84.40;;;;;;5053848;28;20187;-74
2022/10/09 03:20:58;;;;;;;4.10;2.60;;;11.10;84.40;;;;;;5056158;28;20596;-74
2022/10/09 03:23:25;;;;;;;2.60;2.22;;;11.10;84.70;;;;;;5049575;28;20186;-75
2022/10/09 03:25:58;;;;;;;2.22;2.13;;;11.10;84.70;;;;;;5046224;28;20186;-74
2022/10/09 03:28:24;;;;;;;2.55;2.45;;;11.10;84.30;;;;;;5051407;28;20186;-74
2022/10/09 03:30:51;;;;;;;2.75;2.50;;;11.10;85.20;;;;;;5052663;28;20198;-74
2022/10/09 03:33:17;;;;;;;2.97;2.33;;;11.10;84.90;;;;;;5047473;28;20719;-74
2022/10/09 03:35:44;;;;;;;2.38;2.22;;;11.10;84.70;;;;;;5057786;28;20187;-74
2022/10/09 03:38:09;;;;;;;2.22;2.20;;;11.10;84.70;;;;;;5053340;28;20744;-74
2022/10/09 03:40:35;;;;;;;3.80;2.30;;;11.10;84.70;;;;;;5050368;28;20703;-74
2022/10/09 03:43:00;;;;;;;2.38;2.28;;;11.10;84.70;;;;;;5051540;28;20188;-74
2022/10/09 03:45:26;;;;;;;3.05;2.75;;;11.10;84.70;;;;;;5052108;28;21160;-74
2022/10/09 03:47:52;;;;;;;8.05;3.15;;;11.10;84.90;;;;;;5051219;28;20185;-75
2022/10/09 03:50:17;;;;;;;6.13;3.72;;;11.10;84.80;;;;;;5056673;28;20171;-74
2022/10/09 03:52:43;;;;;;;3.65;3.45;;;11.10;84.80;;;;;;5052594;28;20179;-74
2022/10/09 03:55:09;;;;;;;7.95;3.75;;;11.10;85.00;;;;;;5051144;28;20171;-74
2022/10/09 03:57:34;;;;;;;3.97;3.55;;;11.10;84.90;;;;;;5053892;28;20716;-74
2022/10/09 04:00:00;;;;;;;3.43;2.97;;;11.10;84.90;;;;;;5046359;28;20565;-75
2022/10/09 04:02:25;;;;;;;3.53;2.97;;;11.10;85.10;;;;;;5042130;28;20188;-74
2022/10/09 04:04:51;;;;;;;4.90;3.15;;;11.00;85.20;;;;;;5048725;28;20258;-74
2022/10/09 04:07:17;;;;;;;3.57;3.27;;;11.00;84.90;;;;;;5056981;28;20221;-74
2022/10/09 04:09:42;;;;;;;3.45;3.15;;;11.00;85.20;;;;;;5046590;28;20171;-75
2022/10/09 04:12:08;;;;;;;3.20;3.07;;;10.90;84.20;;;;;;5053770;28;20184;-75
2022/10/09 04:14:34;;;;;;;3.57;3.23;;;10.90;85.00;;;;;;5054211;28;20184;-74
2022/10/09 04:16:59;;;;;;;3.07;2.87;;;10.90;85.20;;;;;;5054149;28;20199;-75
2022/10/09 04:19:25;;;;;;;3.20;2.97;;;10.90;85.20;;;;;;5050586;28;20197;-75
2022/10/09 04:21:51;;;;;;;4.20;3.90;;;10.90;85.50;;;;;;5049248;28;20216;-75
2022/10/09 04:24:16;;;;;;;3.60;3.30;;;10.90;85.10;;;;;;5047916;28;20183;-75
2022/10/09 04:26:42;;;;;;;3.30;3.07;;;10.90;85.50;;;;;;5053445;28;20282;-74
2022/10/09 04:29:09;;;;;;;3.33;3.03;;;10.80;85.50;;;;;;5054084;28;20644;-75
2022/10/09 04:31:35;;;;;;;3.20;2.90;;;10.80;85.30;;;;;;5046528;28;20195;-74
2022/10/09 04:34:00;;;;;;;3.75;3.55;;;10.80;85.30;;;;;;5052527;28;20230;-74
2022/10/09 04:36:26;;;;;;;4.33;3.60;;;10.80;85.10;;;;;;5052238;28;20178;-74
2022/10/09 04:38:52;;;;;;;5.83;3.10;;;10.70;85.40;;;;;;5045550;28;20176;-74
2022/10/09 04:41:17;;;;;;;3.10;2.90;;;10.70;85.30;;;;;;5044273;28;20277;-74
2022/10/09 04:43:43;;;;;;;2.57;2.47;;;10.70;85.50;;;;;;5041578;28;20194;-74
2022/10/09 04:46:11;;;;;;;3.10;2.97;;;10.70;85.50;;;;;;5051238;28;20179;-74
2022/10/09 04:48:39;;;;;;;3.00;2.80;;;10.70;85.30;;;;;;5048799;28;20306;-74
2022/10/09 04:51:05;;;;;;;4.28;2.88;;;10.70;85.40;;;;;;5050034;28;20190;-74
2022/10/09 04:53:32;;;;;;;2.43;2.33;;;10.70;85.50;;;;;;5055869;28;20573;-76
2022/10/09 04:56:05;;;;;;;2.75;2.55;;;10.70;85.90;;;;;;5050876;28;20186;-74
2022/10/09 04:58:31;;;;;;;4.97;2.80;;;10.70;85.40;;;;;;5045715;28;20850;-74
2022/10/09 05:00:56;;;;;;;4.15;3.08;;;10.70;86.00;;;;;;5051127;28;20207;-75
2022/10/09 05:03:22;;;;;;;2.70;2.60;;;10.70;86.20;;;;;;5053380;28;20179;-75
2022/10/09 05:05:48;;;;;;;4.13;2.83;;;10.70;86.20;;;;;;5050418;28;20222;-75
2022/10/09 05:08:13;;;;;;;3.22;3.00;;;10.80;86.10;;;;;;5050783;28;20693;-75
2022/10/09 05:10:39;;;;;;;3.65;3.35;;;10.80;86.20;;;;;;5049290;28;20191;-76
2022/10/09 05:13:05;;;;;;;3.20;3.07;;;10.80;86.30;;;;;;5048137;28;20184;-75
2022/10/09 05:15:34;;;;;;;2.53;2.43;;;10.80;86.40;;;;;;5049810;28;20183;-74
2022/10/09 05:18:00;;;;;;;2.53;2.43;;;10.80;86.50;;;;;;5048040;28;20182;-74
2022/10/09 05:20:26;;;;;;;4.80;3.57;;;10.80;86.70;;;;;;5051159;28;20671;-74
2022/10/09 05:22:51;;;;;;;3.70;3.50;;;10.80;86.80;;;;;;5051831;28;20179;-75
2022/10/09 05:25:17;;;;;;;5.73;2.57;;;10.80;86.80;;;;;;5048708;28;20189;-75
2022/10/09 05:27:43;;;;;;;3.80;3.50;;;10.80;86.60;;;;;;5046414;28;20270;-74
2022/10/09 05:30:09;;;;;;;3.20;3.00;;;10.90;86.80;;;;;;5049129;28;20183;-74
2022/10/09 05:32:35;;;;;;;3.80;3.50;;;10.90;87.00;;;;;;5048152;28;20188;-73
2022/10/09 05:35:00;;;;;;;3.97;3.20;;;10.90;87.20;;;;;;5048650;28;20180;-73
2022/10/09 05:37:26;;;;;;;4.83;3.10;;;10.90;87.20;;;;;;5050023;28;20223;-74
2022/10/09 05:39:52;;;;;;;2.55;2.45;;;10.90;86.90;;;;;;5049174;28;20360;-75
2022/10/09 05:42:17;;;;;;;2.30;2.20;;;10.90;86.90;;;;;;5050846;28;20701;-75
2022/10/09 05:44:43;;;;;;;2.80;2.70;;;10.90;87.00;;;;;;5051945;28;20187;-75
2022/10/09 05:47:09;;;;;;;3.20;3.00;;;11.00;87.10;;;;;;5044804;28;20188;-75
2022/10/09 05:49:34;;;;;;;2.90;2.80;;;11.00;87.20;;;;;;5051285;28;20175;-75
2022/10/09 05:52:00;;;;;;;2.67;2.60;;;11.10;87.10;;;;;;5049694;28;20178;-75
2022/10/09 05:54:26;;;;;;;2.07;2.07;;;11.10;87.30;;;;;;5046546;28;20201;-75
2022/10/09 05:56:52;;;;;;;2.20;2.10;;;11.20;87.50;;;;;;5047877;28;20208;-76
2022/10/09 05:59:18;;;;;;;1.73;1.63;;;11.20;87.10;;;;;;5051542;28;20219;-75
2022/10/09 06:01:47;;;;;;;2.55;2.42;;;11.30;87.00;;;;;;5050930;28;20629;-75
2022/10/09 06:04:18;;;;;;;3.78;2.58;;;11.30;86.90;;;;;;5048327;28;20174;-75
2022/10/09 06:06:46;;;;;;;2.05;1.95;;;11.40;86.40;;;;;;5047342;28;20184;-77
2022/10/09 06:09:12;;;;;;;3.05;2.95;;;11.50;86.80;;;;;;5051211;28;20267;-77
2022/10/09 06:11:39;;;;;;;2.35;2.25;;;11.50;87.00;;;;;;5058469;28;20705;-76
2022/10/09 06:14:07;;;;;;;4.07;3.78;;;11.60;86.60;;;;;;5054260;28;20211;-77
2022/10/09 06:16:35;;;;;;;2.92;2.83;;;11.70;86.70;;;;;;5058893;28;20180;-78
2022/10/09 06:19:02;;;;;;;2.97;2.78;;;11.70;86.50;;;;;;5055777;28;20187;-78
2022/10/09 06:21:28;;;;;;;2.63;2.50;;;11.80;86.80;;;;;;5060235;28;20204;-79
2022/10/09 06:23:56;;;;;;;3.78;2.80;;;11.90;86.70;;;;;;5063040;28;20175;-79
2022/10/09 06:26:23;;;;;;;3.67;3.20;;;12.00;86.50;;;;;;5052543;28;20179;-76
2022/10/09 06:28:49;;;;;;;4.05;3.28;;;12.00;86.60;;;;;;5057437;28;20180;-77
2022/10/09 06:31:20;;;;;;;4.05;3.75;;;12.10;86.50;;;;;;5053468;28;20184;-77
2022/10/09 06:33:47;;;;;;;4.70;3.38;;;12.20;86.20;;;;;;5058061;28;20683;-77
2022/10/09 06:36:21;;;;;;;7.15;3.97;;;12.30;86.60;;;;;;5053636;28;20378;-77
2022/10/09 06:38:47;;;;;;;3.60;3.35;;;12.40;86.10;;;;;;5052398;28;20201;-77
2022/10/09 06:41:16;;;;;;;3.85;3.55;;;12.50;86.60;;;;;;5057775;28;20203;-77
2022/10/09 06:43:42;;;;;;;4.60;3.47;;;12.60;86.30;;;;;;5061671;28;20191;-77
2022/10/09 06:46:11;;;;;;;4.93;4.53;;;12.70;86.30;;;;;;5065901;28;20248;-77
2022/10/09 06:48:38;;;;;;;4.45;4.13;;;12.80;86.40;;;;;;5053648;28;20261;-78
2022/10/09 06:51:11;;;;;;;4.85;4.38;;;12.90;86.20;;;;;;5061449;28;20660;-77
2022/10/09 06:53:43;;;;;;;6.03;4.50;;;13.00;85.90;;;;;;5062341;28;20187;-77
2022/10/09 06:56:09;;;;;;;3.83;3.53;;;13.00;85.40;;;;;;5049416;28;20179;-76
2022/10/09 06:58:36;;;;;;;6.88;4.50;;;13.10;85.90;;;;;;5052713;28;20175;-76
2022/10/09 07:01:02;;;;;;;5.30;4.80;;;13.20;85.60;;;;;;5046761;28;20220;-76
2022/10/09 07:03:28;;;;;;;4.65;4.28;;;13.30;85.60;;;;;;5048456;28;20182;-76
2022/10/09 07:05:54;;;;;;;4.32;3.95;;;13.30;85.30;;;;;;5049778;28;20184;-76
2022/10/09 07:08:19;;;;;;;4.22;3.95;;;13.40;85.20;;;;;;5044138;28;20270;-79
2022/10/09 07:10:45;;;;;;;5.38;4.88;;;13.50;85.00;;;;;;5047397;28;20202;-75
2022/10/09 07:13:11;;;;;;;5.40;5.00;;;13.60;85.50;;;;;;5046846;28;20191;-75
2022/10/09 07:15:44;;;;;;;14.57;5.25;;;13.60;85.00;;;;;;5047904;28;21112;-75
2022/10/09 07:18:10;;;;;;;5.78;5.25;;;13.70;84.10;;;;;;5043077;28;20188;-74
2022/10/09 07:20:36;;;;;;;11.13;6.13;;;13.80;85.20;;;;;;5048144;28;20285;-75
2022/10/09 07:23:02;;;;;;;9.00;6.43;;;13.90;85.50;;;;;;5048457;28;20651;-74
2022/10/09 07:25:27;;;;;;;6.03;5.47;;;14.00;85.90;;;;;;5045755;28;20183;-74
2022/10/09 07:27:53;;;;;;;5.32;4.88;;;14.20;86.00;;;;;;5047229;28;20681;-74
2022/10/09 07:30:18;;;;;;;7.20;5.43;;;14.40;85.80;;;;;;5052642;28;20237;-74
2022/10/09 07:32:44;;;;;;;6.80;5.38;;;14.80;85.70;;;;;;5051035;28;20183;-74
2022/10/09 07:35:10;;;;;;;5.75;5.07;;;15.30;84.60;;;;;;5043887;28;20191;-75
2022/10/09 07:37:35;;;;;;;5.70;4.93;;;16.00;83.20;;;;;;5044199;28;20171;-75
2022/10/09 07:40:01;;;;;;;4.55;4.13;;;16.80;81.50;;;;;;5049121;28;20179;-77
2022/10/09 07:42:27;;;;;;;5.30;4.80;;;17.60;79.40;;;;;;5047150;28;20756;-74
2022/10/09 07:44:53;;;;;;;5.72;5.22;;;18.40;77.60;;;;;;5048803;28;20294;-76
2022/10/09 07:47:18;;;;;;;7.22;5.40;;;19.20;77.10;;;;;;5046595;28;20238;-75
2022/10/09 07:49:44;;;;;;;5.90;5.47;;;20.10;76.10;;;;;;5044661;28;20191;-74
2022/10/09 07:52:10;;;;;;;6.78;5.40;;;20.90;73.10;;;;;;5050613;28;20270;-75
2022/10/09 07:54:35;;;;;;;7.13;5.40;;;21.80;71.10;;;;;;5048694;28;20673;-74
2022/10/09 07:57:01;;;;;;;7.63;6.05;;;22.60;69.00;;;;;;5046912;28;20835;-74
2022/10/09 07:59:26;;;;;;;6.38;5.85;;;23.40;68.00;;;;;;5047523;28;20193;-74
2022/10/09 08:01:52;;;;;;;13.63;7.35;;;24.10;67.00;;;;;;5052568;28;20215;-75
2022/10/09 08:04:18;;;;;;;7.57;5.78;;;24.90;65.30;;;;;;5052906;28;20710;-75
2022/10/09 08:06:43;;;;;;;6.25;5.75;;;25.60;63.90;;;;;;5045976;28;20184;-75
2022/10/09 08:09:09;;;;;;;8.23;5.75;;;26.20;62.30;;;;;;5054270;28;20563;-75
2022/10/09 08:11:39;;;;;;;6.13;5.63;;;26.80;62.10;;;;;;5045425;28;20214;-75
2022/10/09 08:14:05;;;;;;;6.10;5.60;;;27.30;60.70;;;;;;5050152;28;20537;-75
2022/10/09 08:16:31;;;;;;;5.80;5.20;;;28.00;60.40;;;;;;5044195;28;20191;-75
2022/10/09 08:18:59;;;;;;;6.32;5.72;;;28.50;59.20;;;;;;5048433;28;20172;-76
2022/10/09 08:21:26;;;;;;;6.85;6.20;;;29.10;58.90;;;;;;5044871;28;20579;-76
2022/10/09 08:23:54;;;;;;;5.95;5.55;;;29.70;57.80;;;;;;5048054;28;20175;-75
2022/10/09 08:26:21;;;;;;;5.70;5.40;;;30.30;55.90;;;;;;5055618;28;20176;-75
2022/10/09 08:28:59;;;;;;;6.35;5.78;;;30.90;56.20;;;;;;5061339;28;20211;-76
2022/10/09 08:31:26;;;;;;;5.82;5.32;;;31.40;53.90;;;;;;5052246;28;20186;-76
2022/10/09 08:33:54;;;;;;;5.85;5.38;;;31.60;54.30;;;;;;5063119;28;20183;-78
2022/10/09 08:36:20;;;;;;;5.38;4.88;;;31.60;55.10;;;;;;5053566;28;20175;-72
2022/10/09 08:38:46;;;;;;;4.97;4.65;;;31.60;54.40;;;;;;5046647;28;20191;-76
2022/10/09 08:41:40;;;;;;;3.85;3.55;;;31.60;53.60;;;;;;5043207;28;20884;-76
2022/10/09 08:44:24;;;;;;;2.47;2.38;;;31.10;51.30;;;;;;5050534;28;20275;-76
2022/10/09 08:47:02;;;;;;;5.80;3.20;;;30.50;54.10;;;;;;5049819;28;20190;-75
2022/10/09 08:49:35;;;;;;;2.95;2.50;;;30.60;53.80;;;;;;5054643;28;20574;-76
2022/10/09 08:52:20;;;;;;;2.28;2.17;;;30.60;54.40;;;;;;5053855;28;20175;-76
2022/10/09 08:54:46;;;;;;;2.58;2.38;;;30.70;53.70;;;;;;5050357;28;20259;-76
2022/10/09 08:57:14;;;;;;;2.30;2.30;;;31.00;52.30;;;;;;5054979;28;20262;-75
2022/10/09 08:59:40;;;;;;;3.20;2.22;;;31.40;52.40;;;;;;5050181;28;20898;-76
2022/10/09 09:02:12;;;;;;;2.67;2.55;;;31.90;52.10;;;;;;5052961;28;20211;-76
2022/10/09 09:05:22;;;;;;;2.78;2.50;;;32.40;49.80;;;;;;5044089;28;20186;-76
2022/10/09 09:08:03;;;;;;;2.78;2.58;;;32.70;50.70;;;;;;5025306;28;20272;-76
2022/10/09 09:10:42;;;;;;;1.98;1.88;;;33.20;50.60;;;;;;5031193;28;20761;-76
2022/10/09 09:13:25;;;;;;;2.42;2.30;;;33.60;50.50;;;;;;5030232;28;20191;-75
2022/10/09 09:16:34;;;;;;;3.50;2.40;;;34.10;49.90;;;;;;5025786;28;20203;-76
2022/10/09 09:19:43;;;;;;;2.30;2.20;;;34.50;48.50;;;;;;4971713;28;20202;-76
2022/10/09 09:22:13;;;;;;;2.38;2.17;;;35.10;47.20;;;;;;4919736;29;20220;-76
2022/10/09 09:24:52;;;;;;;2.25;2.15;;;35.40;47.90;;;;;;4923449;29;20255;-76
2022/10/09 09:27:20;;;;;;;3.60;2.20;;;35.80;48.20;;;;;;4921481;29;20316;-76
2022/10/09 09:30:18;;;;;;;2.15;2.10;;;36.10;46.80;;;;;;4922414;29;20206;-76
2022/10/09 09:33:14;;;;;;;2.38;2.28;;;36.50;48.00;;;;;;4881477;29;20200;-76
2022/10/09 09:35:51;;;;;;;2.42;2.33;;;36.70;45.80;;;;;;4883449;29;20244;-76
2022/10/09 09:38:17;;;;;;;2.20;2.03;;;36.70;45.70;;;;;;4878500;29;20254;-76
2022/10/09 09:40:44;;;;;;;2.58;2.35;;;36.70;47.20;;;;;;4880955;29;20291;-76
2022/10/09 09:43:24;;;;;;;6.43;2.35;;;36.60;47.40;;;;;;4883581;29;20260;-77
2022/10/09 09:45:58;;;;;;;2.78;2.60;;;36.40;46.70;;;;;;4884529;29;20247;-76
2022/10/09 09:48:37;;;;;;;1.88;1.88;;;36.50;47.90;;;;;;4879831;29;20765;-76
2022/10/09 09:51:12;;;;;;;1.60;1.60;;;36.60;47.70;;;;;;4881934;29;20283;-75
2022/10/09 09:53:59;;;;;;;2.72;1.83;;;36.80;46.60;;;;;;4875755;29;20868;-76
2022/10/09 09:56:38;;;;;;;1.98;1.88;;;37.00;45.30;;;;;;4913055;28;21161;-75
2022/10/09 09:59:05;;;;;;;1.83;1.73;;;37.20;45.50;;;;;;5005853;28;20246;-75
2022/10/09 10:01:32;;;;;;;2.30;2.30;;;37.30;46.50;;;;;;5008412;28;20278;-76
2022/10/09 10:04:01;;;;;;;1.75;1.65;;;37.50;45.60;;;;;;5010505;28;20308;-76
2022/10/09 10:06:34;;;;;;;1.90;1.80;;;37.70;46.90;;;;;;5013218;28;20187;-76
2022/10/09 10:09:04;;;;;;;1.67;1.67;;;37.90;45.70;;;;;;5025920;28;20194;-76
2022/10/09 10:11:32;;;;;;;1.60;1.60;;;37.90;42.20;;;;;;5047315;28;20171;-76
2022/10/09 10:14:08;;;;;;;2.28;2.03;;;37.60;45.20;;;;;;5051563;28;20274;-76
2022/10/09 10:16:36;;;;;;;1.67;1.67;;;37.10;43.00;;;;;;5050409;28;20244;-76
2022/10/09 10:19:04;;;;;;;1.98;1.80;;;36.60;44.60;;;;;;5042988;28;20175;-76
2022/10/09 10:21:40;;;;;;;2.30;2.10;;;36.20;44.10;;;;;;5052405;28;20213;-75
2022/10/09 10:24:10;;;;;;;2.00;1.88;;;35.90;45.90;;;;;;5045762;28;20197;-76
2022/10/09 10:26:45;;;;;;;2.35;1.98;;;35.90;44.60;;;;;;5053544;28;20174;-75
2022/10/09 10:29:24;;;;;;;1.55;1.55;;;35.80;46.50;;;;;;5051933;28;20535;-76
2022/10/09 10:32:10;;;;;;;3.97;1.98;;;35.80;45.90;;;;;;5048870;28;20321;-76
2022/10/09 10:34:54;;;;;;;1.90;1.80;;;36.00;44.00;;;;;;5049130;28;20246;-76
2022/10/09 10:37:33;;;;;;;1.63;1.58;;;36.00;45.20;;;;;;5051329;28;20178;-76
2022/10/09 10:40:16;;;;;;;6.97;2.10;;;36.10;44.70;;;;;;5050420;28;20202;-76
2022/10/09 10:42:46;;;;;;;1.60;1.60;;;36.20;44.40;;;;;;5050164;28;20215;-76
2022/10/09 10:45:18;;;;;;;1.70;1.60;;;36.30;42.90;;;;;;5051713;28;20265;-76
2022/10/09 10:47:52;;;;;;;2.90;1.52;;;36.20;43.90;;;;;;5050934;28;20191;-76
2022/10/09 10:50:19;;;;;;;1.90;1.85;;;36.40;45.60;;;;;;5047725;28;20183;-76
2022/10/09 10:52:55;;;;;;;2.30;1.83;;;36.60;45.20;;;;;;5058035;28;20183;-76
2022/10/09 10:55:38;;;;;;;2.47;1.65;;;36.80;43.50;;;;;;5052496;28;20193;-77
2022/10/09 10:58:19;;;;;;;1.73;1.73;;;36.90;44.70;;;;;;5053357;28;20197;-76
2022/10/09 11:00:57;;;;;;;2.30;2.10;;;37.20;44.40;;;;;;5051662;28;20214;-76
2022/10/09 11:03:34;;;;;;;1.85;1.75;;;37.40;44.50;;;;;;5053151;28;20573;-76
2022/10/09 11:06:03;;;;;;;2.25;2.15;;;37.80;44.20;;;;;;5050968;28;20190;-76
2022/10/09 11:08:29;;;;;;;1.98;1.98;;;38.00;42.40;;;;;;5049025;28;20175;-76
2022/10/09 11:11:16;;;;;;;2.03;2.00;;;38.30;42.00;;;;;;5052188;28;20232;-76
2022/10/09 11:14:17;;;;;;;1.92;1.77;;;38.40;41.80;;;;;;5049500;28;20183;-76
2022/10/09 11:16:56;;;;;;;1.98;1.83;;;38.50;41.40;;;;;;5013090;28;20681;-76
2022/10/09 11:20:01;;;;;;;1.38;1.38;;;38.70;41.80;;;;;;5029720;28;20239;-76
2022/10/09 11:22:54;;;;;;;1.90;1.80;;;38.80;40.60;;;;;;5014060;28;20223;-77
2022/10/09 11:25:35;;;;;;;1.80;1.70;;;38.90;40.80;;;;;;5013076;28;20191;-76
2022/10/09 11:28:23;;;;;;;3.65;1.60;;;38.70;40.40;;;;;;5015083;28;20589;-76
2022/10/09 11:31:01;;;;;;;2.00;2.00;;;38.50;41.50;;;;;;5011988;28;20179;-76
2022/10/09 11:33:44;;;;;;;3.25;1.88;;;38.50;43.20;;;;;;5013252;28;20196;-76
2022/10/09 11:36:24;;;;;;;1.70;1.70;;;38.60;41.20;;;;;;5013702;28;20198;-77
2022/10/09 11:38:58;;;;;;;1.92;1.75;;;38.60;41.70;;;;;;5012156;28;20188;-76
2022/10/09 11:41:26;;;;;;;2.50;2.30;;;38.60;42.30;;;;;;5014022;28;20294;-77
2022/10/09 11:44:03;;;;;;;2.10;2.10;;;38.40;40.20;;;;;;5019354;28;20250;-76
2022/10/09 11:46:48;;;;;;;2.20;2.10;;;37.80;40.70;;;;;;5018434;28;20190;-77
2022/10/09 11:49:23;;;;;;;1.73;1.70;;;37.10;42.30;;;;;;5013496;28;20658;-77
2022/10/09 11:52:02;;;;;;;1.67;1.67;;;36.40;41.80;;;;;;5016025;28;20196;-77
2022/10/09 11:54:28;;;;;;;3.03;1.80;;;35.90;41.90;;;;;;5055935;28;20261;-76
2022/10/09 11:56:55;;;;;;;1.73;1.73;;;35.70;42.80;;;;;;5052980;28;20297;-76
2022/10/09 11:59:32;;;;;;;1.60;1.50;;;35.20;42.60;;;;;;5048375;28;20190;-75
2022/10/09 12:02:11;;;;;;;1.95;1.73;;;35.00;44.10;;;;;;5048434;28;20719;-75
2022/10/09 12:04:37;;;;;;;1.83;1.73;;;35.30;42.70;;;;;;5051765;28;20205;-75
2022/10/09 12:07:08;;;;;;;1.92;1.83;;;35.10;43.40;;;;;;5051831;28;20183;-76
2022/10/09 12:09:43;;;;;;;1.77;1.70;;;35.10;43.60;;;;;;5054361;28;20179;-75
2022/10/09 12:12:15;;;;;;;1.98;1.67;;;35.20;42.80;;;;;;5056574;28;20315;-76
2022/10/09 12:14:43;;;;;;;2.08;1.90;;;35.40;42.50;;;;;;5053121;28;20691;-75
2022/10/09 12:17:21;;;;;;;1.90;1.90;;;35.50;43.40;;;;;;5054379;28;20189;-77
2022/10/09 12:19:54;;;;;;;2.35;1.88;;;35.40;43.10;;;;;;5047100;28;20183;-76
2022/10/09 12:22:43;;;;;;;1.92;1.92;;;35.50;43.70;;;;;;5049374;28;20704;-76
2022/10/09 12:25:26;;;;;;;1.73;1.73;;;35.40;42.50;;;;;;5056687;28;20179;-75
2022/10/09 12:27:54;;;;;;;1.67;1.63;;;35.40;42.30;;;;;;5050676;28;20187;-76
2022/10/09 12:30:24;;;;;;;3.55;1.67;;;35.60;42.60;;;;;;5045570;28;20178;-76
2022/10/09 12:32:57;;;;;;;1.80;1.80;;;35.90;43.10;;;;;;5056472;28;20241;-76
2022/10/09 12:35:32;;;;;;;4.88;1.65;;;36.00;41.90;;;;;;5054552;28;20181;-76
2022/10/09 12:37:58;;;;;;;1.77;1.60;;;36.10;41.50;;;;;;5056198;28;20469;-77
2022/10/09 12:40:27;;;;;;;1.83;1.83;;;36.30;42.50;;;;;;5051765;28;20206;-76
2022/10/09 12:42:53;;;;;;;1.90;1.85;;;36.40;42.00;;;;;;5047915;28;20182;-76
2022/10/09 12:45:30;;;;;;;1.58;1.58;;;36.40;41.40;;;;;;5052773;28;20218;-76
2022/10/09 12:48:09;;;;;;;1.55;1.55;;;36.60;40.90;;;;;;5051475;28;20244;-77
2022/10/09 12:50:35;;;;;;;1.55;1.55;;;36.60;41.00;;;;;;5049542;28;20247;-77
2022/10/09 12:53:14;;;;;;;1.73;1.73;;;36.10;40.80;;;;;;5055535;28;20780;-77
2022/10/09 12:55:49;;;;;;;1.80;1.80;;;35.70;41.60;;;;;;5055831;28;20216;-76
2022/10/09 12:58:38;;;;;;;1.77;1.77;;;35.30;41.30;;;;;;5053584;28;20182;-78
2022/10/09 13:01:12;;;;;;;1.80;1.80;;;34.90;41.40;;;;;;5046476;28;20209;-77
2022/10/09 13:03:41;;;;;;;2.28;1.73;;;34.50;42.00;;;;;;5048559;28;20190;-77